Time,TemperatureF,DewpointF,PressureIn,WindDirection,WindDirectionDegrees,WindSpeedMPH,WindSpeedGustMPH,Humidity,HourlyPrecipIn,Conditions,Clouds,dailyrainin,SoftwareType,DateUTC
2013-04-19 00:00:00,63.8,56.4,29.63,SSE,157,5.0,15.0,77,0.00,,,-99.99,WeatherLink 5.6,2013-04-19 04:00:00,
2013-04-19 00:30:00,63.7,56.7,29.60,SSE,157,6.0,25.0,78,0.00,,,-99.99,WeatherLink 5.6,2013-04-19 04:30:00,
2013-04-19 01:00:00,64.4,57.0,29.58,South,180,12.0,33.0,77,0.00,,,-99.99,WeatherLink 5.6,2013-04-19 05:00:00,
2013-04-19 01:30:00,64.4,57.0,29.56,South,180,17.0,34.0,77,0.00,,,-99.99,WeatherLink 5.6,2013-04-19 05:30:00,
2013-04-19 02:00:00,64.2,56.8,29.54,South,180,18.0,33.0,77,0.00,,,-99.99,WeatherLink 5.6,2013-04-19 06:00:00,
2013-04-19 02:30:00,64.3,56.6,29.52,South,180,17.0,33.0,76,0.01,,,-99.99,WeatherLink 5.6,2013-04-19 06:30:00,
2013-04-19 03:00:00,64.1,57.1,29.50,South,180,14.0,33.0,78,0.01,,,-99.99,WeatherLink 5.6,2013-04-19 07:00:00,
2013-04-19 03:30:00,64.4,57.0,29.50,South,180,16.0,33.0,77,0.00,,,-99.99,WeatherLink 5.6,2013-04-19 07:30:00,
2013-04-19 04:00:00,64.2,57.2,29.50,South,180,15.0,34.0,78,0.00,,,-99.99,WeatherLink 5.6,2013-04-19 08:00:00,
2013-04-19 04:30:00,64.1,56.7,29.49,South,180,16.0,34.0,77,0.00,,,-99.99,WeatherLink 5.6,2013-04-19 08:30:00,
2013-04-19 05:00:00,64.1,56.4,29.46,South,180,16.0,40.0,76,0.00,,,-99.99,WeatherLink 5.6,2013-04-19 09:00:00,
2013-04-19 05:30:00,64.3,56.2,29.46,South,180,19.0,43.0,75,0.00,,,-99.99,WeatherLink 5.6,2013-04-19 09:30:00,
2013-04-19 06:00:00,64.3,56.2,29.46,South,180,17.0,40.0,75,0.00,,,-99.99,WeatherLink 5.6,2013-04-19 10:00:00,
2013-04-19 06:30:00,64.2,56.1,29.47,South,180,17.0,38.0,75,0.00,,,-99.99,WeatherLink 5.6,2013-04-19 10:30:00,
2013-04-19 07:00:00,64.3,56.6,29.48,South,180,15.0,35.0,76,0.00,,,-99.99,WeatherLink 5.6,2013-04-19 11:00:00,
2013-04-19 07:30:00,64.4,56.7,29.50,South,180,13.0,31.0,76,0.00,,,-99.99,WeatherLink 5.6,2013-04-19 11:30:00,
2013-04-19 08:00:00,64.8,56.7,29.50,South,180,12.0,31.0,75,0.00,,,-99.99,WeatherLink 5.6,2013-04-19 12:00:00,
2013-04-19 08:30:00,64.4,57.0,29.50,South,180,15.0,28.0,77,0.00,,,-99.99,WeatherLink 5.6,2013-04-19 12:30:00,
2013-04-19 09:00:00,63.0,57.4,29.51,South,180,14.0,33.0,82,0.00,,,-99.99,WeatherLink 5.6,2013-04-19 13:00:00,
2013-04-19 09:30:00,62.1,57.5,29.51,South,180,9.0,25.0,85,0.00,,,-99.99,WeatherLink 5.6,2013-04-19 13:30:00,
2013-04-19 10:00:00,61.3,58.0,29.52,South,180,9.0,25.0,89,0.00,,,-99.99,WeatherLink 5.6,2013-04-19 14:00:00,
2013-04-19 10:30:00,59.9,57.6,29.53,South,180,10.0,30.0,92,0.00,,,-99.99,WeatherLink 5.6,2013-04-19 14:30:00,
2013-04-19 11:00:00,59.8,58.1,29.49,South,180,7.0,24.0,94,0.00,,,-99.99,WeatherLink 5.6,2013-04-19 15:00:00,
2013-04-19 11:30:00,59.5,58.1,29.48,South,180,9.0,22.0,95,0.00,,,-99.99,WeatherLink 5.6,2013-04-19 15:30:00,
2013-04-19 12:00:00,59.7,58.3,29.50,SSW,202,6.0,21.0,95,0.00,,,-99.99,WeatherLink 5.6,2013-04-19 16:00:00,
2013-04-19 12:30:00,55.7,53.7,29.52,WSW,247,7.0,22.0,93,0.00,,,-99.99,WeatherLink 5.6,2013-04-19 16:30:00,
2013-04-19 13:00:00,54.0,52.6,29.53,WNW,292,6.0,17.0,95,0.00,,,-99.99,WeatherLink 5.6,2013-04-19 17:00:00,
2013-04-19 13:30:00,52.3,50.9,29.58,WNW,292,3.0,14.0,95,0.00,,,-99.99,WeatherLink 5.6,2013-04-19 17:30:00,
2013-04-19 14:00:00,50.7,49.3,29.60,WNW,292,4.0,21.0,95,0.01,,,-99.99,WeatherLink 5.6,2013-04-19 18:00:00,
2013-04-19 14:30:00,49.3,48.2,29.59,NW,315,3.0,13.0,96,0.01,,,-99.99,WeatherLink 5.6,2013-04-19 18:30:00,
2013-04-19 15:00:00,49.8,47.9,29.60,West,270,6.0,18.0,93,0.00,,,-99.99,WeatherLink 5.6,2013-04-19 19:00:00,
2013-04-19 15:30:00,49.6,46.5,29.62,West,270,5.0,19.0,89,0.00,,,-99.99,WeatherLink 5.6,2013-04-19 19:30:00,
2013-04-19 16:00:00,46.0,44.1,29.63,NW,315,4.0,12.0,93,0.10,,,-99.99,WeatherLink 5.6,2013-04-19 20:00:00,
2013-04-19 16:30:00,43.6,42.3,29.65,NW,315,5.0,11.0,95,0.10,,,-99.99,WeatherLink 5.6,2013-04-19 20:30:00,
2013-04-19 17:00:00,42.9,41.6,29.66,NW,315,4.0,12.0,95,0.00,,,-99.99,WeatherLink 5.6,2013-04-19 21:00:00,
2013-04-19 17:30:00,42.8,41.5,29.68,NW,315,5.0,14.0,95,0.00,,,-99.99,WeatherLink 5.6,2013-04-19 21:30:00,
2013-04-19 18:00:00,42.9,41.3,29.68,NW,315,3.0,10.0,94,0.00,,,-99.99,WeatherLink 5.6,2013-04-19 22:00:00,
2013-04-19 18:30:00,43.4,40.7,29.68,NW,315,3.0,10.0,90,0.00,,,-99.99,WeatherLink 5.6,2013-04-19 22:30:00,
2013-04-19 19:00:00,43.3,40.3,29.68,NW,315,4.0,11.0,89,0.00,,,-99.99,WeatherLink 5.6,2013-04-19 23:00:00,
2013-04-19 19:30:00,42.7,39.1,29.67,NW,315,5.0,11.0,87,0.00,,,-99.99,WeatherLink 5.6,2013-04-19 23:30:00,
2013-04-19 20:00:00,41.9,38.0,29.70,NW,315,5.0,13.0,86,0.00,,,-99.99,WeatherLink 5.6,2013-04-20 00:00:00,
2013-04-19 20:30:00,41.2,36.7,29.73,NW,315,7.0,18.0,84,0.00,,,-99.99,WeatherLink 5.6,2013-04-20 00:30:00,
2013-04-19 21:00:00,40.8,35.7,29.75,NW,315,6.0,16.0,82,0.00,,,-99.99,WeatherLink 5.6,2013-04-20 01:00:00,
2013-04-19 21:30:00,40.9,35.2,29.77,WNW,292,3.0,13.0,80,0.00,,,-99.99,WeatherLink 5.6,2013-04-20 01:30:00,
2013-04-19 22:00:00,40.5,35.4,29.79,NW,315,4.0,15.0,82,0.00,,,-99.99,WeatherLink 5.6,2013-04-20 02:00:00,
2013-04-19 22:30:00,39.2,34.5,29.82,NW,315,9.0,22.0,83,0.00,,,-99.99,WeatherLink 5.6,2013-04-20 02:30:00,
2013-04-19 23:00:00,39.2,33.5,29.83,NW,315,6.0,14.0,80,0.00,,,-99.99,WeatherLink 5.6,2013-04-20 03:00:00,
2013-04-19 23:30:00,38.8,32.8,29.84,NW,315,9.0,19.0,79,0.00,,,-99.99,WeatherLink 5.6,2013-04-20 03:30:00,